Time;durP1;ratioP1;P1;durP2;ratioP2;P2;SDS_P1;SDS_P2;PMS_P1;PMS_P2;Temp;Humidity;BMP_temperature;BMP_pressure;BME280_temperature;BME280_humidity;BME280_pressure;Samples;Min_cycle;Max_cycle;Signal;HPM_P1;HPM_P2
2022/04/09 00:00:33;;;;;;;4.17;2.10;;;10.10;99.90;;;;;;4937505;29;20476;-71
2022/04/09 00:02:59;;;;;;;3.93;2.07;;;10.00;99.90;;;;;;4953339;28;20467;-71
2022/04/09 00:05:28;;;;;;;3.17;1.77;;;10.00;99.90;;;;;;4946163;29;20796;-71
2022/04/09 00:07:54;;;;;;;4.60;1.67;;;10.00;99.90;;;;;;4950726;29;20452;-71
2022/04/09 00:10:20;;;;;;;4.53;1.60;;;10.00;99.90;;;;;;4954401;29;20442;-71
2022/04/09 00:12:46;;;;;;;5.47;1.83;;;10.00;99.90;;;;;;4953444;29;20450;-71
2022/04/09 00:15:14;;;;;;;5.50;2.13;;;10.00;99.90;;;;;;4948459;29;20810;-71
2022/04/09 00:17:46;;;;;;;5.07;1.43;;;10.00;99.90;;;;;;4948434;29;20452;-72
2022/04/09 00:20:18;;;;;;;3.10;1.77;;;10.00;99.90;;;;;;4948919;29;20929;-72
2022/04/09 00:22:48;;;;;;;4.90;1.90;;;9.90;99.90;;;;;;4932900;29;21048;-71
2022/04/09 00:25:24;;;;;;;4.67;2.00;;;9.90;99.90;;;;;;4946763;29;20466;-71
2022/04/09 00:27:53;;;;;;;4.90;1.70;;;9.90;99.90;;;;;;4937342;29;20447;-71
2022/04/09 00:30:24;;;;;;;5.17;2.13;;;9.90;99.90;;;;;;4922858;29;20447;-72
2022/04/09 00:32:55;;;;;;;3.93;2.03;;;9.90;99.90;;;;;;4935146;29;20452;-71
2022/04/09 00:35:21;;;;;;;3.50;2.07;;;9.90;99.90;;;;;;4931389;29;20442;-71
2022/04/09 00:37:50;;;;;;;4.20;2.00;;;9.90;99.90;;;;;;4918986;29;20814;-72
2022/04/09 00:40:25;;;;;;;2.00;1.80;;;9.90;99.90;;;;;;4922501;29;21057;-71
2022/04/09 00:42:54;;;;;;;6.20;2.20;;;9.90;99.90;;;;;;4918042;29;20543;-72
2022/04/09 00:45:22;;;;;;;4.63;2.03;;;9.90;99.90;;;;;;4946566;29;20463;-71
2022/04/09 00:47:48;;;;;;;6.60;2.50;;;9.90;99.90;;;;;;4937048;29;20455;-71
2022/04/09 00:50:14;;;;;;;3.60;1.90;;;9.90;99.90;;;;;;4938957;28;20914;-71
2022/04/09 00:52:49;;;;;;;3.23;1.90;;;9.90;99.90;;;;;;4921582;29;20439;-71
2022/04/09 00:58:16;;;;;;;3.80;2.20;;;9.80;99.90;;;;;;4940032;29;20450;-71
2022/04/09 01:00:45;;;;;;;6.63;1.93;;;9.80;99.90;;;;;;4936811;29;20441;-71
2022/04/09 01:03:21;;;;;;;3.77;2.10;;;9.80;99.90;;;;;;4945623;29;20427;-71
2022/04/09 01:05:48;;;;;;;5.40;2.13;;;9.80;99.90;;;;;;4934526;29;20943;-71
2022/04/09 01:08:15;;;;;;;4.03;1.73;;;9.80;99.90;;;;;;4921188;29;20431;-71
2022/04/09 01:10:46;;;;;;;4.50;2.23;;;9.80;99.90;;;;;;4952744;29;20764;-71
2022/04/09 01:13:15;;;;;;;5.53;2.67;;;9.80;99.90;;;;;;4946771;29;20523;-71
2022/04/09 01:15:45;;;;;;;2.77;1.87;;;9.80;99.90;;;;;;4952395;29;20415;-71
2022/04/09 01:18:15;;;;;;;5.07;2.20;;;9.80;99.90;;;;;;4940078;29;20435;-71
2022/04/09 01:20:45;;;;;;;6.07;2.20;;;9.80;99.90;;;;;;4918082;29;20438;-71
2022/04/09 01:23:13;;;;;;;8.07;1.93;;;9.70;99.90;;;;;;4934394;29;20525;-71
2022/04/09 01:25:43;;;;;;;4.90;2.00;;;9.70;99.90;;;;;;4917774;29;20409;-71
2022/04/09 01:28:10;;;;;;;5.07;2.30;;;9.70;99.90;;;;;;4933728;29;20805;-71
2022/04/09 01:30:40;;;;;;;6.40;1.87;;;9.70;99.90;;;;;;4917308;29;20529;-71
2022/04/09 01:33:06;;;;;;;4.27;2.33;;;9.70;99.90;;;;;;4938893;29;20452;-71
2022/04/09 01:35:32;;;;;;;5.10;2.07;;;9.70;99.90;;;;;;4933445;29;20846;-71
2022/04/09 01:38:04;;;;;;;2.73;1.83;;;9.70;99.90;;;;;;4948568;29;20467;-71
2022/04/09 01:40:30;;;;;;;6.20;1.90;;;9.70;99.90;;;;;;4934687;29;20906;-71
2022/04/09 01:42:55;;;;;;;6.70;2.10;;;9.70;99.90;;;;;;4942442;29;20452;-71
2022/04/09 01:45:22;;;;;;;5.43;1.83;;;9.70;99.90;;;;;;4928331;29;20463;-72
2022/04/09 01:47:48;;;;;;;6.43;2.60;;;9.70;99.90;;;;;;4933399;29;20984;-71
2022/04/09 01:50:14;;;;;;;7.47;2.30;;;9.70;99.90;;;;;;4942954;29;20427;-72
2022/04/09 01:52:43;;;;;;;3.20;2.37;;;9.60;99.90;;;;;;4940434;29;20420;-71
2022/04/09 01:55:13;;;;;;;7.70;2.23;;;9.60;99.90;;;;;;4929543;29;20436;-71
2022/04/09 01:57:42;;;;;;;3.43;1.73;;;9.70;99.90;;;;;;4936435;29;20443;-71
2022/04/09 02:00:11;;;;;;;5.33;2.40;;;9.60;99.90;;;;;;4923890;29;20470;-71
2022/04/09 02:02:40;;;;;;;4.73;2.20;;;9.60;99.90;;;;;;4937797;29;21078;-71
2022/04/09 02:05:11;;;;;;;3.53;2.13;;;9.60;99.90;;;;;;4921033;29;20432;-71
2022/04/09 02:07:42;;;;;;;4.90;2.13;;;9.60;99.90;;;;;;4921623;29;20504;-71
2022/04/09 02:10:09;;;;;;;6.97;2.17;;;9.60;99.90;;;;;;4937073;29;20510;-71
2022/04/09 02:12:39;;;;;;;5.40;2.40;;;9.60;99.90;;;;;;4939763;29;20454;-71
2022/04/09 02:15:12;;;;;;;4.47;2.30;;;9.60;99.90;;;;;;4932505;29;20427;-71
2022/04/09 02:17:40;;;;;;;8.50;2.70;;;9.60;99.90;;;;;;4936510;29;20511;-71
2022/04/09 02:20:10;;;;;;;8.87;2.87;;;9.60;99.90;;;;;;4936210;29;20415;-71
2022/04/09 02:22:45;;;;;;;5.80;2.13;;;9.50;99.90;;;;;;4935896;29;20476;-71
2022/04/09 02:25:17;;;;;;;6.07;2.77;;;9.50;99.90;;;;;;4953919;29;20450;-71
2022/04/09 02:27:47;;;;;;;5.37;2.23;;;9.50;99.90;;;;;;4955323;29;20489;-71
2022/04/09 02:30:16;;;;;;;4.50;2.20;;;9.50;99.90;;;;;;4939355;29;20418;-71
2022/04/09 02:32:48;;;;;;;3.63;1.90;;;9.50;99.90;;;;;;4937100;29;20578;-71
2022/04/09 02:35:19;;;;;;;5.17;2.30;;;9.50;99.90;;;;;;4935920;29;20852;-71
2022/04/09 02:37:48;;;;;;;7.13;2.13;;;9.50;99.90;;;;;;4921396;29;20615;-71
2022/04/09 02:40:15;;;;;;;6.20;2.53;;;9.50;99.90;;;;;;4954122;29;20450;-71
2022/04/09 02:42:46;;;;;;;4.80;2.10;;;9.50;99.90;;;;;;4921540;29;20503;-71
2022/04/09 02:45:12;;;;;;;3.40;1.87;;;9.50;99.90;;;;;;4920303;29;20415;-71
2022/04/09 02:47:42;;;;;;;6.17;2.10;;;9.50;99.90;;;;;;4931906;29;20455;-71
2022/04/09 02:50:19;;;;;;;4.33;2.30;;;9.40;99.90;;;;;;4905551;29;20441;-71
2022/04/09 02:52:49;;;;;;;9.60;2.00;;;9.50;99.90;;;;;;4905873;29;20428;-71
2022/04/09 02:55:17;;;;;;;6.13;2.20;;;9.40;99.90;;;;;;4920225;29;20432;-71
2022/04/09 02:57:43;;;;;;;5.63;2.20;;;9.40;99.90;;;;;;4936715;29;20467;-72
2022/04/09 03:00:12;;;;;;;5.40;1.90;;;9.40;99.90;;;;;;4940752;29;20428;-71
2022/04/09 03:02:40;;;;;;;4.27;1.70;;;9.40;99.90;;;;;;4955799;28;20451;-71
2022/04/09 03:05:10;;;;;;;7.40;3.00;;;9.40;99.90;;;;;;4933515;29;20433;-71
2022/04/09 03:07:37;;;;;;;6.00;2.53;;;9.40;99.90;;;;;;4904218;29;21005;-71
2022/04/09 03:10:06;;;;;;;3.63;1.90;;;9.40;99.90;;;;;;4950508;29;20484;-71
2022/04/09 03:12:32;;;;;;;5.73;1.80;;;9.40;99.90;;;;;;4944184;29;20436;-71
2022/04/09 03:15:01;;;;;;;8.27;3.20;;;9.40;99.90;;;;;;4951017;29;20430;-71
2022/04/09 03:17:31;;;;;;;9.30;2.43;;;9.30;99.90;;;;;;4935257;29;20208;-71
2022/04/09 03:19:58;;;;;;;8.10;2.43;;;9.40;99.90;;;;;;4915145;29;20467;-71
2022/04/09 03:22:24;;;;;;;5.63;2.40;;;9.30;99.90;;;;;;4954204;29;21037;-71
2022/04/09 03:24:52;;;;;;;5.40;2.47;;;9.30;99.90;;;;;;4927707;29;20447;-71
2022/04/09 03:27:21;;;;;;;5.33;2.20;;;9.30;99.90;;;;;;4934857;29;20432;-71
2022/04/09 03:29:49;;;;;;;8.33;2.27;;;9.30;99.90;;;;;;4929039;29;20487;-71
2022/04/09 03:32:17;;;;;;;5.50;1.63;;;9.30;99.90;;;;;;4938397;29;20979;-71
2022/04/09 03:34:46;;;;;;;4.83;2.27;;;9.30;99.90;;;;;;4945813;29;20424;-71
2022/04/09 03:37:12;;;;;;;5.13;2.13;;;9.30;99.90;;;;;;4936196;29;20456;-71
2022/04/09 03:39:41;;;;;;;6.77;1.80;;;9.30;99.90;;;;;;4949725;29;20427;-71
2022/04/09 03:42:08;;;;;;;7.00;2.30;;;9.30;99.90;;;;;;4953792;29;20477;-71
2022/04/09 03:44:35;;;;;;;6.77;2.20;;;9.30;99.90;;;;;;4922161;29;20944;-72
2022/04/09 03:47:03;;;;;;;5.37;2.10;;;9.30;99.90;;;;;;4938241;29;20525;-71
2022/04/09 03:49:31;;;;;;;5.57;1.90;;;9.30;99.90;;;;;;4952462;29;20448;-71
2022/04/09 03:51:58;;;;;;;4.20;1.80;;;9.30;99.90;;;;;;4923970;29;20891;-71
2022/04/09 03:54:26;;;;;;;6.47;2.33;;;9.30;99.90;;;;;;4931481;29;20433;-71
2022/04/09 03:56:54;;;;;;;5.50;1.93;;;9.30;99.90;;;;;;4947487;29;21249;-71
2022/04/09 03:59:25;;;;;;;5.30;2.40;;;9.20;99.90;;;;;;4934768;29;20416;-71
2022/04/09 04:01:52;;;;;;;9.57;3.50;;;9.20;99.90;;;;;;4935562;29;20462;-71
2022/04/09 04:04:21;;;;;;;7.53;2.40;;;9.20;99.90;;;;;;4938153;29;20863;-71
2022/04/09 04:06:49;;;;;;;12.17;3.03;;;9.30;99.90;;;;;;4937135;29;20510;-71
2022/04/09 04:09:20;;;;;;;4.30;1.80;;;9.20;99.90;;;;;;4929477;29;20510;-71
2022/04/09 04:11:56;;;;;;;7.87;2.03;;;9.20;99.90;;;;;;4937035;29;20518;-71
2022/04/09 04:14:28;;;;;;;5.23;2.27;;;9.20;99.90;;;;;;4919110;29;20431;-71
2022/04/09 04:16:55;;;;;;;9.10;2.33;;;9.20;99.90;;;;;;4950013;29;20447;-71
2022/04/09 04:19:21;;;;;;;8.33;2.40;;;9.20;99.90;;;;;;4937401;29;20986;-71
2022/04/09 04:21:50;;;;;;;6.37;2.33;;;9.20;99.90;;;;;;4936081;29;20931;-71
2022/04/09 04:24:19;;;;;;;6.20;2.20;;;9.20;99.90;;;;;;4917638;29;20520;-71
2022/04/09 04:26:46;;;;;;;6.30;2.17;;;9.20;99.90;;;;;;4934059;29;20435;-71
2022/04/09 04:29:19;;;;;;;7.03;2.30;;;9.10;99.90;;;;;;4920036;29;20512;-71
2022/04/09 04:31:50;;;;;;;4.60;1.83;;;9.10;99.90;;;;;;4937678;29;20387;-71
2022/04/09 04:34:17;;;;;;;7.70;2.37;;;9.10;99.90;;;;;;4935284;29;20506;-71
2022/04/09 04:36:47;;;;;;;10.77;1.93;;;9.10;99.90;;;;;;4910368;29;20515;-71
2022/04/09 04:39:14;;;;;;;6.27;2.00;;;9.10;99.90;;;;;;4919191;29;20456;-71
2022/04/09 04:41:43;;;;;;;4.13;2.20;;;9.10;99.90;;;;;;4937608;29;20960;-71
2022/04/09 04:44:10;;;;;;;3.80;1.97;;;9.10;99.90;;;;;;4940627;29;20805;-72
2022/04/09 04:46:41;;;;;;;6.13;2.13;;;9.10;99.90;;;;;;4953036;29;20437;-71
2022/04/09 04:49:12;;;;;;;4.20;2.10;;;9.10;99.90;;;;;;4941381;29;20420;-70
2022/04/09 04:51:39;;;;;;;4.93;2.10;;;9.10;99.90;;;;;;4934004;29;20451;-70
2022/04/09 04:54:07;;;;;;;6.87;2.10;;;9.10;99.90;;;;;;4910580;29;20455;-71
2022/04/09 04:56:34;;;;;;;6.53;2.20;;;9.10;99.90;;;;;;4938625;29;20462;-70
2022/04/09 04:59:07;;;;;;;8.23;2.43;;;9.10;99.90;;;;;;4916481;29;20428;-70
2022/04/09 05:01:40;;;;;;;8.40;2.60;;;9.10;99.90;;;;;;4947424;29;20477;-70
2022/04/09 05:04:12;;;;;;;4.37;1.83;;;9.10;99.90;;;;;;4942307;29;20426;-70
2022/04/09 05:06:56;;;;;;;9.00;3.20;;;9.00;99.90;;;;;;4934902;29;20469;-70
2022/04/09 05:09:24;;;;;;;8.53;2.40;;;9.00;99.90;;;;;;4922524;29;20420;-71
2022/04/09 05:12:01;;;;;;;4.80;2.00;;;9.00;99.90;;;;;;4909609;29;20502;-70
2022/04/09 05:14:56;;;;;;;6.20;2.73;;;9.00;99.90;;;;;;4931758;29;20470;-70
2022/04/09 05:17:22;;;;;;;5.90;2.00;;;9.00;99.90;;;;;;4915405;29;20557;-71
2022/04/09 05:19:51;;;;;;;11.80;2.73;;;9.00;99.90;;;;;;4925402;29;20810;-70
2022/04/09 05:22:19;;;;;;;5.87;2.00;;;9.10;99.90;;;;;;4947815;28;20454;-70
2022/04/09 05:24:56;;;;;;;6.33;3.33;;;9.00;99.90;;;;;;4951999;29;20493;-70
2022/04/09 05:27:24;;;;;;;4.60;1.90;;;9.00;99.90;;;;;;4920433;29;20455;-70
2022/04/09 05:29:55;;;;;;;9.83;2.43;;;9.00;99.90;;;;;;4935276;29;20467;-70
2022/04/09 05:32:22;;;;;;;7.70;2.40;;;9.00;99.90;;;;;;4936535;29;20527;-70
2022/04/09 05:34:51;;;;;;;8.90;2.53;;;9.00;99.90;;;;;;4950329;29;20435;-71
2022/04/09 05:37:18;;;;;;;7.40;2.20;;;9.00;99.90;;;;;;4919930;29;21017;-70
2022/04/09 05:39:47;;;;;;;9.30;2.40;;;9.00;99.90;;;;;;4920617;29;20450;-70
2022/04/09 05:42:13;;;;;;;4.70;2.10;;;9.00;99.90;;;;;;4944051;29;20509;-70
2022/04/09 05:44:40;;;;;;;6.53;2.50;;;9.00;99.90;;;;;;4924957;29;20447;-70
2022/04/09 05:47:09;;;;;;;5.40;2.50;;;8.90;99.90;;;;;;4942939;29;20481;-71
2022/04/09 05:49:39;;;;;;;7.90;2.80;;;9.00;99.90;;;;;;4942813;29;20467;-71
2022/04/09 05:52:06;;;;;;;7.20;2.60;;;8.90;99.90;;;;;;4937996;29;20422;-71
2022/04/09 05:54:35;;;;;;;4.97;2.20;;;9.00;99.90;;;;;;4953380;29;20434;-70
2022/04/09 05:57:02;;;;;;;6.87;2.70;;;8.90;99.90;;;;;;4940855;28;20473;-70
2022/04/09 05:59:33;;;;;;;9.97;2.50;;;8.90;99.90;;;;;;4934872;29;20503;-71
2022/04/09 06:01:59;;;;;;;5.93;2.20;;;8.90;99.90;;;;;;4936918;29;20518;-71
2022/04/09 06:04:25;;;;;;;8.60;2.30;;;8.90;99.90;;;;;;4930941;29;20443;-70
2022/04/09 06:06:55;;;;;;;6.70;2.37;;;8.90;99.90;;;;;;4945350;29;20200;-70
2022/04/09 06:09:25;;;;;;;11.90;2.47;;;8.90;99.90;;;;;;4911930;29;20955;-71
2022/04/09 06:12:14;;;;;;;11.17;3.03;;;8.90;99.90;;;;;;4941063;29;20462;-71
2022/04/09 06:14:52;;;;;;;7.20;2.90;;;8.90;99.90;;;;;;4937733;29;20458;-70
2022/04/09 06:17:21;;;;;;;8.67;2.60;;;8.90;99.90;;;;;;4952971;29;20811;-71
2022/04/09 06:19:48;;;;;;;5.57;2.70;;;8.90;99.90;;;;;;4937993;29;20431;-71
2022/04/09 06:22:16;;;;;;;6.53;2.50;;;8.90;99.90;;;;;;4922620;29;20474;-71
2022/04/09 06:24:45;;;;;;;10.13;2.70;;;8.90;99.90;;;;;;4933984;29;20928;-71
2022/04/09 06:27:12;;;;;;;5.13;2.30;;;8.90;99.90;;;;;;4946375;29;20444;-71
2022/04/09 06:29:38;;;;;;;4.97;2.83;;;8.90;99.90;;;;;;4953267;29;20976;-71
2022/04/09 06:32:05;;;;;;;7.03;3.53;;;8.80;99.90;;;;;;4948772;29;20441;-71
2022/04/09 06:34:31;;;;;;;8.57;3.07;;;8.90;99.90;;;;;;4949716;28;20806;-71
2022/04/09 06:37:03;;;;;;;10.23;2.97;;;8.80;99.90;;;;;;4918625;29;20491;-71
2022/04/09 06:39:29;;;;;;;9.60;2.70;;;8.80;99.90;;;;;;4944992;29;20435;-71
2022/04/09 06:41:55;;;;;;;6.63;2.30;;;8.90;99.90;;;;;;4947038;29;20822;-71
2022/04/09 06:44:37;;;;;;;6.90;3.33;;;8.80;99.90;;;;;;4934510;29;20434;-71
2022/04/09 06:47:13;;;;;;;9.60;2.80;;;8.80;99.90;;;;;;4933873;29;20885;-71
2022/04/09 06:49:45;;;;;;;6.93;2.50;;;8.80;99.90;;;;;;4936819;29;21261;-71
2022/04/09 06:52:20;;;;;;;10.37;2.50;;;8.90;99.90;;;;;;4951642;29;20457;-71
2022/04/09 06:55:12;;;;;;;7.00;2.80;;;8.80;99.90;;;;;;4935520;29;21054;-71
2022/04/09 06:57:45;;;;;;;5.83;2.70;;;8.80;99.90;;;;;;4937101;29;20440;-71
2022/04/09 07:00:16;;;;;;;7.93;2.67;;;8.80;99.90;;;;;;4934441;29;20438;-71
2022/04/09 07:02:45;;;;;;;4.10;2.00;;;8.90;99.90;;;;;;4936698;29;20455;-71
2022/04/09 07:05:11;;;;;;;11.90;3.00;;;8.80;99.90;;;;;;4953037;29;20588;-71
2022/04/09 07:07:41;;;;;;;8.17;3.10;;;8.80;99.90;;;;;;4948473;29;20567;-71
2022/04/09 07:10:11;;;;;;;5.23;2.43;;;8.80;99.90;;;;;;4941111;28;20430;-71
2022/04/09 07:12:38;;;;;;;4.40;2.20;;;8.80;99.90;;;;;;4950818;29;20517;-71
2022/04/09 07:15:07;;;;;;;9.10;2.80;;;8.80;99.90;;;;;;4948962;29;20428;-72
2022/04/09 07:17:37;;;;;;;6.67;2.60;;;8.80;99.90;;;;;;4952492;28;20453;-71
2022/04/09 07:20:06;;;;;;;5.53;2.37;;;8.80;99.90;;;;;;4948623;29;20997;-71
2022/04/09 07:22:34;;;;;;;4.50;2.10;;;8.80;99.90;;;;;;4934801;29;20567;-72
2022/04/09 07:25:00;;;;;;;10.40;2.70;;;8.80;99.90;;;;;;4922878;29;20463;-71
2022/04/09 07:27:42;;;;;;;8.83;2.50;;;8.80;99.90;;;;;;4935458;29;20436;-72
2022/04/09 07:30:18;;;;;;;8.00;2.53;;;8.80;99.90;;;;;;4919749;29;20454;-70
2022/04/09 07:32:47;;;;;;;9.50;2.47;;;8.80;99.90;;;;;;4954884;28;20418;-69
2022/04/09 07:35:14;;;;;;;8.93;2.70;;;8.80;99.90;;;;;;4948381;29;20847;-70
2022/04/09 07:37:46;;;;;;;10.80;3.60;;;8.90;99.90;;;;;;4934067;29;21021;-70
2022/04/09 07:40:19;;;;;;;7.90;2.47;;;8.80;99.90;;;;;;4957963;28;21039;-70
2022/04/09 07:42:45;;;;;;;7.43;2.87;;;8.80;99.90;;;;;;4946521;29;20865;-70
2022/04/09 07:45:13;;;;;;;7.80;2.27;;;8.80;99.90;;;;;;4952249;28;20415;-70
2022/04/09 07:47:40;;;;;;;8.70;2.70;;;8.80;99.90;;;;;;4939238;29;20455;-70
2022/04/09 07:50:10;;;;;;;8.33;2.40;;;8.80;99.90;;;;;;4947824;28;20471;-70
2022/04/09 07:52:42;;;;;;;10.27;2.73;;;8.80;99.90;;;;;;4972522;28;20481;-70
2022/04/09 07:55:11;;;;;;;6.43;2.43;;;8.80;99.90;;;;;;4927878;29;20531;-70
2022/04/09 07:57:38;;;;;;;6.53;2.20;;;8.80;99.90;;;;;;4947530;28;20891;-70
2022/04/09 08:00:08;;;;;;;6.30;2.20;;;8.80;99.90;;;;;;4953352;28;20435;-70
2022/04/09 08:02:42;;;;;;;7.90;2.40;;;8.80;99.90;;;;;;4952056;28;20461;-70
2022/04/09 08:05:13;;;;;;;5.23;2.20;;;8.80;99.90;;;;;;4947235;28;20904;-70
2022/04/09 08:07:41;;;;;;;8.93;3.10;;;8.80;99.90;;;;;;4952861;29;20439;-70
2022/04/09 08:10:08;;;;;;;9.23;2.40;;;8.80;99.90;;;;;;4945053;29;20795;-70
2022/04/09 08:12:34;;;;;;;7.60;2.63;;;8.80;99.90;;;;;;4940039;29;20477;-70
2022/04/09 08:15:04;;;;;;;6.70;2.13;;;8.80;99.90;;;;;;4935915;29;20428;-70
2022/04/09 08:17:30;;;;;;;7.10;2.50;;;8.80;99.90;;;;;;4939985;29;21027;-69
2022/04/09 08:19:56;;;;;;;8.23;2.87;;;8.90;99.90;;;;;;4949359;29;20431;-69
2022/04/09 08:22:22;;;;;;;6.10;2.30;;;8.90;99.90;;;;;;4934714;29;20463;-69
2022/04/09 08:24:48;;;;;;;8.63;2.40;;;8.90;99.90;;;;;;4938322;29;20455;-69
2022/04/09 08:27:19;;;;;;;7.63;2.80;;;8.90;99.90;;;;;;4931438;29;21071;-69
2022/04/09 08:29:45;;;;;;;6.40;2.80;;;8.90;99.90;;;;;;4942121;29;20446;-69
2022/04/09 08:32:13;;;;;;;5.87;2.50;;;8.90;99.90;;;;;;4949519;29;20837;-69
2022/04/09 08:34:39;;;;;;;6.00;2.20;;;8.90;99.90;;;;;;4938645;29;20432;-68
2022/04/09 08:37:10;;;;;;;8.70;2.80;;;8.90;99.90;;;;;;4931572;29;20458;-68
2022/04/09 08:39:36;;;;;;;8.70;2.20;;;8.90;99.90;;;;;;4939943;29;20895;-68
2022/04/09 08:42:04;;;;;;;2.83;2.00;;;8.90;99.90;;;;;;4944100;29;20458;-69
2022/04/09 08:44:36;;;;;;;4.77;2.17;;;8.90;99.90;;;;;;4944149;29;20411;-69
2022/04/09 08:47:02;;;;;;;4.90;2.10;;;8.90;99.90;;;;;;4950788;29;20840;-69
2022/04/09 08:49:37;;;;;;;7.13;2.43;;;9.00;99.90;;;;;;4950624;29;20521;-69
2022/04/09 08:52:09;;;;;;;2.07;1.50;;;9.00;99.90;;;;;;4951026;28;20486;-69
2022/04/09 08:54:39;;;;;;;3.67;1.73;;;9.00;99.90;;;;;;4949430;29;21131;-70
2022/04/09 08:57:08;;;;;;;7.20;1.83;;;9.00;99.90;;;;;;4952017;28;20441;-71
2022/04/09 08:59:41;;;;;;;4.27;1.97;;;9.00;99.90;;;;;;4949357;28;20423;-70
2022/04/09 09:02:10;;;;;;;2.43;1.17;;;9.00;99.90;;;;;;4947709;29;21164;-72
2022/04/09 09:04:36;;;;;;;4.27;1.63;;;9.00;99.90;;;;;;4937419;28;20439;-71
2022/04/09 09:07:20;;;;;;;3.73;1.27;;;9.00;99.90;;;;;;4915844;29;20448;-71
2022/04/09 09:09:50;;;;;;;4.87;1.77;;;9.00;99.90;;;;;;4933165;29;20434;-72
2022/04/09 09:12:27;;;;;;;7.80;2.40;;;9.10;99.90;;;;;;4933533;29;20404;-71
2022/04/09 09:14:55;;;;;;;5.93;1.87;;;9.10;99.90;;;;;;4944849;29;20423;-71
2022/04/09 09:17:29;;;;;;;6.73;1.53;;;9.10;99.90;;;;;;4932036;29;20460;-71
2022/04/09 09:19:58;;;;;;;2.30;1.63;;;9.10;99.90;;;;;;4935010;29;20515;-72
2022/04/09 09:22:42;;;;;;;2.20;1.63;;;9.10;99.90;;;;;;4941907;29;20458;-73
2022/04/09 09:25:09;;;;;;;3.63;1.87;;;9.20;99.90;;;;;;4918424;29;20495;-73
2022/04/09 09:27:37;;;;;;;3.63;2.23;;;9.20;99.90;;;;;;4923292;29;20445;-72
2022/04/09 09:30:07;;;;;;;8.60;1.93;;;9.20;99.90;;;;;;4934152;29;20475;-70
2022/04/09 09:32:38;;;;;;;2.43;1.70;;;9.20;99.90;;;;;;4941416;29;20423;-74
2022/04/09 09:35:09;;;;;;;6.63;2.03;;;9.30;99.90;;;;;;4953884;29;20895;-75
2022/04/09 09:37:35;;;;;;;3.13;2.00;;;9.30;99.90;;;;;;4953135;28;20451;-74
2022/04/09 09:40:07;;;;;;;3.33;2.10;;;9.30;99.90;;;;;;4951462;29;20873;-72
2022/04/09 09:42:37;;;;;;;6.57;2.03;;;9.30;99.90;;;;;;4935742;29;20458;-73
2022/04/09 09:45:11;;;;;;;6.47;2.00;;;9.30;99.90;;;;;;4921916;29;20470;-71
2022/04/09 09:47:57;;;;;;;4.27;1.83;;;9.30;99.90;;;;;;4922107;29;20460;-74
2022/04/09 09:50:42;;;;;;;3.83;1.87;;;9.40;99.90;;;;;;4935390;29;20439;-70
2022/04/09 09:53:11;;;;;;;3.40;2.03;;;9.40;99.90;;;;;;4935825;29;20415;-72
2022/04/09 09:55:46;;;;;;;3.60;1.40;;;9.40;99.90;;;;;;4935518;29;20401;-72
2022/04/09 09:58:16;;;;;;;5.20;1.70;;;9.40;99.90;;;;;;4935517;29;20474;-72
2022/04/09 10:00:43;;;;;;;3.63;1.90;;;9.40;99.90;;;;;;4934445;29;20495;-72
2022/04/09 10:03:13;;;;;;;4.97;2.20;;;9.40;99.90;;;;;;4934263;29;21187;-68
2022/04/09 10:05:42;;;;;;;6.00;2.10;;;9.40;99.90;;;;;;4934234;29;20435;-68
2022/04/09 10:08:11;;;;;;;6.27;2.50;;;9.50;99.90;;;;;;4935242;29;20483;-71
2022/04/09 10:10:40;;;;;;;3.63;2.27;;;9.50;99.90;;;;;;4920963;29;20794;-68
2022/04/09 10:13:08;;;;;;;6.33;1.87;;;9.50;99.90;;;;;;4935225;29;20466;-70
2022/04/09 10:15:39;;;;;;;3.60;2.30;;;9.60;99.90;;;;;;4957994;28;20893;-70
2022/04/09 10:18:08;;;;;;;4.27;2.13;;;9.60;99.90;;;;;;4957801;28;20395;-74
2022/04/09 10:20:34;;;;;;;5.37;2.60;;;9.60;99.90;;;;;;4956658;29;20442;-75
2022/04/09 10:23:09;;;;;;;3.90;2.17;;;9.60;99.90;;;;;;4956964;29;20447;-75
2022/04/09 10:25:43;;;;;;;2.80;1.93;;;9.60;99.90;;;;;;4940556;29;20442;-74
2022/04/09 10:28:11;;;;;;;3.20;1.67;;;9.70;99.90;;;;;;4957937;28;20489;-71
2022/04/09 10:30:43;;;;;;;4.37;1.47;;;9.70;99.90;;;;;;4940896;29;20455;-73
2022/04/09 10:33:24;;;;;;;5.00;1.53;;;9.70;99.90;;;;;;4949090;29;20507;-74
2022/04/09 10:35:50;;;;;;;4.10;1.50;;;9.70;99.90;;;;;;4938585;29;20404;-73
2022/04/09 10:38:17;;;;;;;3.57;1.30;;;9.80;99.90;;;;;;4921642;29;20443;-70
2022/04/09 10:40:42;;;;;;;1.57;1.27;;;9.80;99.90;;;;;;4937352;29;20420;-68
2022/04/09 10:43:10;;;;;;;1.90;1.17;;;9.80;99.90;;;;;;4949694;29;20470;-70
2022/04/09 10:46:11;;;;;;;2.93;1.30;;;9.80;99.90;;;;;;4952046;29;20472;-70
2022/04/09 10:48:44;;;;;;;3.90;1.43;;;9.80;99.90;;;;;;4945645;29;20538;-70
2022/04/09 10:51:14;;;;;;;1.93;1.20;;;9.80;99.90;;;;;;4955398;29;20414;-70
2022/04/09 10:53:45;;;;;;;3.27;1.13;;;9.80;99.90;;;;;;4938439;29;20563;-69
2022/04/09 10:56:27;;;;;;;3.67;1.60;;;9.80;99.90;;;;;;4954849;29;20430;-69
2022/04/09 10:59:29;;;;;;;2.80;1.43;;;9.70;99.90;;;;;;4948248;29;20827;-69
2022/04/09 11:01:57;;;;;;;2.17;1.30;;;9.80;99.90;;;;;;4937241;29;20465;-72
2022/04/09 11:04:30;;;;;;;2.97;1.10;;;9.80;99.90;;;;;;4921284;29;20425;-71
2022/04/09 11:07:09;;;;;;;1.97;1.17;;;9.80;99.90;;;;;;4920604;29;20484;-68
2022/04/09 11:09:56;;;;;;;1.33;1.03;;;9.80;99.90;;;;;;4954166;29;20427;-69
2022/04/09 11:12:30;;;;;;;2.93;1.50;;;9.80;99.90;;;;;;4954037;29;20462;-68
2022/04/09 11:15:00;;;;;;;2.03;1.33;;;9.80;99.90;;;;;;4955422;28;20458;-68
2022/04/09 11:17:29;;;;;;;2.47;1.60;;;9.80;99.90;;;;;;4942201;29;20464;-69
2022/04/09 11:20:04;;;;;;;2.03;1.30;;;9.80;99.90;;;;;;4935495;29;20507;-72
2022/04/09 11:22:38;;;;;;;4.33;1.50;;;9.90;99.90;;;;;;4935838;29;20457;-69
2022/04/09 11:25:06;;;;;;;3.23;1.50;;;9.90;99.90;;;;;;4920112;29;20433;-72
2022/04/09 11:27:35;;;;;;;4.80;1.60;;;9.90;99.90;;;;;;4919865;29;20809;-71
2022/04/09 11:30:02;;;;;;;18.43;2.97;;;10.00;99.90;;;;;;4944979;29;20958;-72
2022/04/09 11:32:32;;;;;;;18.57;3.20;;;10.00;99.90;;;;;;4955053;29;21102;-74
2022/04/09 11:35:06;;;;;;;13.43;2.70;;;10.10;99.90;;;;;;4954973;29;20499;-74
2022/04/09 11:37:32;;;;;;;12.67;2.80;;;10.20;99.90;;;;;;4956290;29;20447;-73
2022/04/09 11:40:05;;;;;;;17.73;2.17;;;10.20;99.90;;;;;;4954356;28;20494;-73
2022/04/09 11:42:57;;;;;;;13.97;2.80;;;10.30;99.90;;;;;;4950266;28;20528;-72
2022/04/09 11:45:28;;;;;;;6.43;1.87;;;10.30;99.90;;;;;;4941201;29;20435;-71
2022/04/09 11:47:58;;;;;;;17.03;2.30;;;10.40;99.90;;;;;;4954101;28;20498;-75
2022/04/09 11:50:32;;;;;;;8.83;2.03;;;10.40;99.90;;;;;;4955830;29;20427;-76
2022/04/09 11:53:15;;;;;;;10.23;2.57;;;10.40;99.90;;;;;;4955719;28;20478;-75
2022/04/09 11:55:42;;;;;;;8.43;1.70;;;10.40;99.90;;;;;;4954234;29;20423;-76
2022/04/09 11:58:08;;;;;;;3.60;1.80;;;10.50;99.80;;;;;;4938810;29;20427;-75
2022/04/09 12:00:42;;;;;;;21.13;2.40;;;10.50;99.70;;;;;;4937976;29;20490;-76
2022/04/09 12:03:12;;;;;;;21.57;2.40;;;10.50;99.40;;;;;;4953815;29;20857;-76
2022/04/09 12:05:42;;;;;;;6.87;2.83;;;10.60;98.70;;;;;;4940047;29;20464;-76
2022/04/09 12:08:14;;;;;;;3.60;1.90;;;10.60;98.00;;;;;;4919378;29;20971;-76
2022/04/09 12:11:01;;;;;;;6.77;1.50;;;10.70;97.00;;;;;;4936544;29;20447;-76
2022/04/09 12:13:28;;;;;;;2.80;1.60;;;10.80;96.40;;;;;;4954512;29;20936;-76
2022/04/09 12:16:02;;;;;;;6.23;1.90;;;10.80;95.90;;;;;;4954057;29;20439;-74
2022/04/09 12:18:31;;;;;;;2.80;1.40;;;10.80;95.70;;;;;;4953358;28;20462;-74
2022/04/09 12:21:26;;;;;;;3.40;1.70;;;10.90;95.20;;;;;;4923201;29;20425;-73
2022/04/09 12:24:07;;;;;;;4.93;1.70;;;10.90;95.00;;;;;;4920164;29;20471;-79
2022/04/09 12:26:37;;;;;;;2.57;1.63;;;10.90;95.00;;;;;;4936338;29;20447;-75
2022/04/09 12:29:16;;;;;;;4.20;1.83;;;10.90;94.50;;;;;;4935204;29;20926;-76
2022/04/09 12:31:43;;;;;;;5.80;1.47;;;10.90;93.60;;;;;;4934992;29;20411;-76
2022/04/09 12:34:10;;;;;;;2.10;1.60;;;10.90;93.20;;;;;;4955916;28;20407;-76
2022/04/09 12:36:38;;;;;;;4.50;1.20;;;10.90;93.30;;;;;;4965125;28;20514;-76
2022/04/09 12:39:36;;;;;;;4.60;1.30;;;10.80;93.80;;;;;;4954166;28;20434;-76
2022/04/09 12:42:05;;;;;;;3.23;1.57;;;10.80;94.60;;;;;;4964009;28;20486;-77
2022/04/09 12:44:33;;;;;;;2.90;1.40;;;10.90;95.30;;;;;;4953603;29;20397;-76
2022/04/09 12:47:00;;;;;;;2.63;1.70;;;10.90;95.90;;;;;;4937563;29;20561;-74
2022/04/09 12:49:32;;;;;;;9.00;2.17;;;10.90;96.50;;;;;;4953853;29;20482;-74
2022/04/09 12:52:02;;;;;;;6.60;2.10;;;11.00;96.80;;;;;;4942133;28;20432;-75
2022/04/09 12:54:28;;;;;;;5.73;1.67;;;11.00;96.80;;;;;;4934445;29;20471;-74
2022/04/09 12:57:06;;;;;;;2.60;1.60;;;11.10;96.90;;;;;;4952101;29;20541;-74
2022/04/09 12:59:32;;;;;;;4.50;1.60;;;11.20;97.00;;;;;;4935863;29;20439;-74
2022/04/09 13:01:59;;;;;;;3.23;1.37;;;11.30;96.90;;;;;;4935497;29;20487;-76
2022/04/09 13:04:25;;;;;;;6.40;1.73;;;11.30;96.60;;;;;;4934108;29;20436;-74
2022/04/09 13:06:51;;;;;;;6.40;3.00;;;11.40;95.80;;;;;;4935139;29;20445;-74
2022/04/09 13:09:16;;;;;;;6.63;1.47;;;11.40;95.40;;;;;;4928042;29;20493;-74
2022/04/09 13:11:47;;;;;;;3.33;1.23;;;11.50;95.30;;;;;;4937425;29;20415;-74
2022/04/09 13:14:16;;;;;;;3.70;1.30;;;11.50;95.10;;;;;;4953621;29;20228;-74